Time;durP1;ratioP1;P1;durP2;ratioP2;P2;SDS_P1;SDS_P2;PMS_P1;PMS_P2;Temp;Humidity;BMP_temperature;BMP_pressure;BME280_temperature;BME280_humidity;BME280_pressure;Samples;Min_cycle;Max_cycle;Signal;HPM_P1;HPM_P2
2022/10/10 00:00:53;;;;;;;2.03;1.50;;;10.10;99.90;;;;;;5026681;28;20202;-72
2022/10/10 00:03:19;;;;;;;1.87;1.43;;;10.10;99.90;;;;;;5033588;28;20185;-72
2022/10/10 00:05:45;;;;;;;2.43;1.50;;;10.10;99.90;;;;;;5025054;28;20179;-72
2022/10/10 00:08:11;;;;;;;2.07;1.70;;;10.10;99.90;;;;;;5027187;28;20166;-73
2022/10/10 00:10:37;;;;;;;2.93;1.40;;;10.10;99.90;;;;;;5025727;28;20183;-72
2022/10/10 00:13:04;;;;;;;2.10;1.40;;;10.10;99.90;;;;;;5026023;28;20351;-71
2022/10/10 00:15:29;;;;;;;2.20;1.50;;;10.10;99.90;;;;;;5023199;28;20177;-72
2022/10/10 00:17:55;;;;;;;2.13;1.40;;;10.10;99.90;;;;;;5029145;28;20196;-71
2022/10/10 00:20:21;;;;;;;2.10;1.50;;;10.00;99.90;;;;;;5027703;28;20205;-71
2022/10/10 00:22:47;;;;;;;1.67;1.50;;;10.00;99.90;;;;;;5032067;28;20186;-70
2022/10/10 00:25:13;;;;;;;4.30;1.70;;;10.00;99.90;;;;;;5038007;28;20243;-72
2022/10/10 00:27:39;;;;;;;1.90;1.40;;;10.10;99.90;;;;;;5039771;28;20177;-71
2022/10/10 00:30:07;;;;;;;1.93;1.43;;;10.10;99.90;;;;;;5034827;28;20180;-71
2022/10/10 00:32:33;;;;;;;2.03;1.33;;;10.10;99.90;;;;;;5035401;28;20173;-72
2022/10/10 00:35:01;;;;;;;2.87;1.50;;;10.10;99.90;;;;;;5035299;28;20185;-72
2022/10/10 00:37:27;;;;;;;2.13;1.50;;;10.10;99.90;;;;;;5036183;28;20186;-72
2022/10/10 00:39:54;;;;;;;2.07;1.47;;;10.00;99.90;;;;;;5032228;28;20331;-72
2022/10/10 00:42:20;;;;;;;2.70;1.40;;;10.00;99.90;;;;;;5035266;28;20194;-72
2022/10/10 00:45:21;;;;;;;1.60;1.50;;;10.00;99.90;;;;;;5036806;28;20166;-71
2022/10/10 00:47:48;;;;;;;2.47;1.47;;;10.00;99.90;;;;;;5036671;28;20265;-71
2022/10/10 00:50:18;;;;;;;2.00;1.60;;;10.00;99.90;;;;;;5038892;28;20288;-71
2022/10/10 00:52:44;;;;;;;2.33;1.50;;;10.00;99.90;;;;;;5038981;28;20182;-72
2022/10/10 00:55:11;;;;;;;1.90;1.40;;;9.90;99.90;;;;;;5035354;28;20268;-69
2022/10/10 00:57:40;;;;;;;2.20;1.50;;;9.90;99.90;;;;;;5036027;28;20198;-71
2022/10/10 01:00:08;;;;;;;1.90;1.40;;;9.90;99.90;;;;;;5037916;28;20285;-71
2022/10/10 01:02:36;;;;;;;1.70;1.40;;;9.90;99.90;;;;;;5035405;28;20280;-71
2022/10/10 01:05:04;;;;;;;2.40;1.40;;;9.80;99.90;;;;;;5031813;28;20204;-71
2022/10/10 01:07:31;;;;;;;2.10;1.60;;;9.80;99.90;;;;;;5035794;28;20193;-72
2022/10/10 01:10:02;;;;;;;1.67;1.40;;;9.80;99.90;;;;;;5038977;28;20188;-71
2022/10/10 01:12:41;;;;;;;1.67;1.30;;;9.80;99.90;;;;;;5046688;28;20229;-71
2022/10/10 01:15:34;;;;;;;1.60;1.20;;;9.70;99.90;;;;;;5034061;28;20181;-72
2022/10/10 01:18:08;;;;;;;1.67;1.20;;;9.70;99.90;;;;;;5025546;28;20277;-69
2022/10/10 01:21:08;;;;;;;2.77;1.40;;;9.70;99.90;;;;;;5033392;28;20330;-71
2022/10/10 01:23:36;;;;;;;1.87;1.47;;;9.70;99.90;;;;;;5034962;28;20210;-70
2022/10/10 01:26:20;;;;;;;1.30;1.20;;;9.60;99.90;;;;;;5033067;28;20178;-67
2022/10/10 01:29:09;;;;;;;1.70;1.40;;;9.70;99.90;;;;;;5048348;28;20198;-70
2022/10/10 01:31:41;;;;;;;2.43;1.40;;;9.60;99.90;;;;;;5034321;28;20254;-69
2022/10/10 01:34:19;;;;;;;2.60;1.53;;;9.60;99.90;;;;;;5032949;28;20179;-70
2022/10/10 01:36:48;;;;;;;2.00;1.27;;;9.60;99.90;;;;;;5042724;28;20250;-70
2022/10/10 01:39:21;;;;;;;1.70;1.37;;;9.60;99.90;;;;;;5028781;28;20174;-72
2022/10/10 01:41:55;;;;;;;2.43;1.50;;;9.60;99.90;;;;;;5020905;28;20206;-71
2022/10/10 01:44:25;;;;;;;2.13;1.37;;;9.60;99.90;;;;;;5032699;28;20181;-71
2022/10/10 01:46:53;;;;;;;2.00;1.53;;;9.60;99.90;;;;;;5033575;28;20201;-71
2022/10/10 01:49:26;;;;;;;1.70;1.40;;;9.60;99.90;;;;;;5028325;28;20270;-68
2022/10/10 01:52:10;;;;;;;2.23;1.60;;;9.50;99.90;;;;;;5037126;28;20170;-72
2022/10/10 01:55:11;;;;;;;2.57;1.90;;;9.50;99.90;;;;;;5030564;28;20212;-71
2022/10/10 01:57:47;;;;;;;2.43;1.50;;;9.50;99.90;;;;;;4984225;28;20213;-68
2022/10/10 02:00:15;;;;;;;2.27;1.40;;;9.50;99.90;;;;;;5018742;28;20260;-71
2022/10/10 02:03:03;;;;;;;2.93;1.70;;;9.50;99.90;;;;;;5024490;28;20189;-68
2022/10/10 02:05:47;;;;;;;2.63;1.40;;;9.40;99.90;;;;;;5032606;28;20409;-69
2022/10/10 02:08:34;;;;;;;1.47;1.27;;;9.40;99.90;;;;;;5031682;28;20186;-71
2022/10/10 02:11:07;;;;;;;1.50;1.30;;;9.40;99.90;;;;;;5031132;28;20178;-71
2022/10/10 02:13:42;;;;;;;2.80;1.50;;;9.40;99.90;;;;;;5028527;28;20210;-70
2022/10/10 02:16:21;;;;;;;1.90;1.70;;;9.30;99.90;;;;;;5029745;28;20186;-71
2022/10/10 02:18:52;;;;;;;2.30;1.60;;;9.40;99.90;;;;;;5025992;28;20244;-71
2022/10/10 02:21:18;;;;;;;2.67;1.73;;;9.30;99.90;;;;;;5030644;28;20205;-71
2022/10/10 02:23:47;;;;;;;2.00;1.50;;;9.30;99.90;;;;;;5029864;28;20225;-72
2022/10/10 02:26:16;;;;;;;2.50;1.60;;;9.30;99.90;;;;;;5029855;28;20185;-71
2022/10/10 02:28:48;;;;;;;2.97;1.60;;;9.30;99.90;;;;;;5028747;28;20360;-70
2022/10/10 02:31:23;;;;;;;3.40;1.83;;;9.30;99.90;;;;;;5031561;28;20181;-73
2022/10/10 02:34:00;;;;;;;2.60;1.77;;;9.30;99.90;;;;;;5027207;28;20184;-70
2022/10/10 02:36:30;;;;;;;3.40;1.90;;;9.20;99.90;;;;;;5028104;28;20201;-71
2022/10/10 02:38:57;;;;;;;2.23;1.87;;;9.30;99.90;;;;;;5048140;28;20186;-72
2022/10/10 02:41:24;;;;;;;2.63;1.80;;;9.30;99.90;;;;;;5029733;28;20309;-70
2022/10/10 02:43:55;;;;;;;2.77;2.00;;;9.20;99.90;;;;;;5029772;28;20201;-67
2022/10/10 02:46:22;;;;;;;2.77;2.10;;;9.20;99.90;;;;;;5025870;28;20174;-71
2022/10/10 02:48:47;;;;;;;2.93;2.07;;;9.20;99.90;;;;;;5032809;28;20174;-70
2022/10/10 02:51:18;;;;;;;2.73;2.00;;;9.20;99.90;;;;;;5024986;28;20197;-72
2022/10/10 02:53:43;;;;;;;2.53;2.00;;;9.20;99.90;;;;;;5030085;28;20370;-72
2022/10/10 02:56:09;;;;;;;2.33;2.13;;;9.20;99.90;;;;;;5030176;28;20217;-72
2022/10/10 02:58:35;;;;;;;3.50;2.27;;;9.20;99.90;;;;;;5030130;28;20230;-71
2022/10/10 03:01:03;;;;;;;3.30;2.33;;;9.20;99.90;;;;;;5029998;28;20210;-71
2022/10/10 03:03:29;;;;;;;3.20;2.50;;;9.30;99.90;;;;;;5026755;28;20239;-71
2022/10/10 03:05:54;;;;;;;3.70;2.77;;;9.20;99.90;;;;;;5028925;28;20202;-70
2022/10/10 03:08:22;;;;;;;3.60;2.53;;;9.20;99.90;;;;;;5027815;28;20175;-72
2022/10/10 03:10:58;;;;;;;3.37;2.67;;;9.10;99.90;;;;;;5032423;28;20178;-71
2022/10/10 03:13:27;;;;;;;3.47;2.60;;;9.10;99.90;;;;;;5040839;28;20197;-69
2022/10/10 03:15:53;;;;;;;4.60;2.67;;;9.10;99.90;;;;;;5022219;28;20190;-72
2022/10/10 03:18:19;;;;;;;4.63;2.93;;;9.10;99.90;;;;;;5031206;28;20217;-72
2022/10/10 03:20:55;;;;;;;3.63;2.87;;;9.10;99.90;;;;;;5029057;28;20205;-71
2022/10/10 03:23:22;;;;;;;4.70;2.90;;;9.00;99.90;;;;;;5042885;28;20170;-71
2022/10/10 03:25:48;;;;;;;3.40;2.80;;;9.00;99.90;;;;;;5026529;28;20177;-72
2022/10/10 03:28:13;;;;;;;4.23;2.97;;;9.00;99.90;;;;;;5029517;28;20268;-71
2022/10/10 03:30:40;;;;;;;4.70;2.70;;;9.00;99.90;;;;;;5024685;28;20336;-69
2022/10/10 03:33:08;;;;;;;4.07;2.90;;;9.00;99.90;;;;;;5029209;28;20298;-70
2022/10/10 03:35:34;;;;;;;7.23;5.60;;;9.00;99.90;;;;;;5035867;28;20186;-67
2022/10/10 03:38:00;;;;;;;20.13;13.47;;;9.00;99.90;;;;;;5026977;28;20189;-71
2022/10/10 03:40:29;;;;;;;10.87;7.93;;;9.00;99.90;;;;;;5028493;28;20194;-71
2022/10/10 03:42:55;;;;;;;8.20;5.80;;;9.00;99.90;;;;;;5026705;28;20178;-70
2022/10/10 03:45:21;;;;;;;6.80;4.73;;;9.00;99.90;;;;;;5023817;28;20218;-69
2022/10/10 03:47:48;;;;;;;8.83;5.00;;;9.00;99.90;;;;;;5028986;28;20182;-71
2022/10/10 03:50:14;;;;;;;7.97;4.00;;;9.00;99.90;;;;;;5025517;28;20183;-72
2022/10/10 03:52:42;;;;;;;5.13;3.93;;;8.90;99.90;;;;;;5030715;28;20212;-71
2022/10/10 03:55:08;;;;;;;5.47;4.00;;;9.00;99.90;;;;;;5027362;28;20178;-72
2022/10/10 03:57:36;;;;;;;4.90;3.33;;;8.90;99.90;;;;;;5023113;28;20217;-72
2022/10/10 04:00:05;;;;;;;6.03;3.53;;;8.90;99.90;;;;;;5029434;28;20206;-71
2022/10/10 04:02:30;;;;;;;5.00;3.30;;;8.90;99.90;;;;;;5035308;28;20478;-69
2022/10/10 04:04:56;;;;;;;4.63;3.20;;;9.00;99.90;;;;;;5019685;28;20206;-71
2022/10/10 04:07:21;;;;;;;9.27;5.20;;;9.00;99.90;;;;;;5028992;28;20208;-71
2022/10/10 04:09:47;;;;;;;13.43;9.00;;;9.00;99.90;;;;;;5025577;28;20181;-71
2022/10/10 04:12:13;;;;;;;9.43;6.60;;;9.00;99.90;;;;;;5026721;28;20186;-71
2022/10/10 04:14:40;;;;;;;6.90;4.73;;;9.00;99.90;;;;;;5028266;28;20195;-72
2022/10/10 04:17:08;;;;;;;6.03;4.20;;;9.00;99.90;;;;;;5031221;28;20185;-71
2022/10/10 04:19:36;;;;;;;5.13;3.50;;;9.00;99.90;;;;;;5029379;28;20182;-71
2022/10/10 04:22:07;;;;;;;5.57;3.40;;;9.00;99.90;;;;;;5031469;28;20205;-72
2022/10/10 04:24:32;;;;;;;5.03;3.30;;;9.00;99.90;;;;;;5028729;28;20461;-72
2022/10/10 04:26:58;;;;;;;4.23;2.90;;;9.10;99.90;;;;;;5029128;28;20193;-71
2022/10/10 04:29:23;;;;;;;3.37;2.50;;;9.10;99.90;;;;;;5029391;28;20245;-73
2022/10/10 04:31:52;;;;;;;7.20;2.30;;;9.20;99.90;;;;;;5030573;28;20196;-71
2022/10/10 04:34:17;;;;;;;5.20;2.93;;;9.10;99.90;;;;;;5025357;28;20414;-66
2022/10/10 04:36:43;;;;;;;4.90;1.90;;;9.30;99.90;;;;;;5026869;28;20209;-73
2022/10/10 04:39:08;;;;;;;3.90;2.60;;;9.40;99.90;;;;;;5025085;28;20221;-71
2022/10/10 04:41:34;;;;;;;4.70;2.50;;;9.40;99.90;;;;;;5023188;28;20205;-73
2022/10/10 04:44:00;;;;;;;2.27;1.70;;;9.50;99.90;;;;;;5030935;28;20197;-74
2022/10/10 04:46:26;;;;;;;3.50;2.20;;;9.60;99.90;;;;;;5029359;28;20178;-72
2022/10/10 04:48:51;;;;;;;2.97;2.10;;;9.70;99.90;;;;;;5027798;28;20193;-70
2022/10/10 04:51:17;;;;;;;4.83;2.40;;;9.80;99.90;;;;;;5026747;28;20194;-73
2022/10/10 04:53:43;;;;;;;2.10;1.90;;;9.90;99.90;;;;;;5029086;28;20183;-72
2022/10/10 04:56:13;;;;;;;3.07;1.93;;;9.90;99.90;;;;;;5023465;28;20178;-74
2022/10/10 04:58:39;;;;;;;3.00;1.80;;;10.00;99.90;;;;;;5023118;28;20259;-72
2022/10/10 05:01:04;;;;;;;2.70;1.90;;;10.10;99.90;;;;;;5028563;28;20240;-70
2022/10/10 05:03:32;;;;;;;5.77;2.17;;;10.10;99.90;;;;;;5027685;28;20185;-73
2022/10/10 05:05:58;;;;;;;2.67;1.70;;;10.10;99.90;;;;;;5028455;28;20170;-73
2022/10/10 05:08:24;;;;;;;1.77;1.43;;;10.20;99.90;;;;;;5023431;28;20202;-73
2022/10/10 05:10:52;;;;;;;2.23;1.63;;;10.20;99.90;;;;;;5030766;28;20188;-73
2022/10/10 05:13:18;;;;;;;2.87;1.60;;;10.30;99.90;;;;;;5025712;28;20209;-73
2022/10/10 05:15:43;;;;;;;2.13;1.53;;;10.30;99.90;;;;;;5030638;28;20174;-73
2022/10/10 05:18:09;;;;;;;2.73;1.43;;;10.30;99.90;;;;;;5025190;28;20178;-72
2022/10/10 05:20:35;;;;;;;2.47;1.83;;;10.30;99.90;;;;;;5030055;28;20260;-73
2022/10/10 05:23:04;;;;;;;2.40;1.70;;;10.40;99.90;;;;;;5032033;28;20185;-72
2022/10/10 05:25:29;;;;;;;2.13;1.60;;;10.40;99.90;;;;;;5026545;28;20174;-73
2022/10/10 05:27:55;;;;;;;2.77;1.73;;;10.40;99.90;;;;;;5031777;28;20181;-73
2022/10/10 05:30:21;;;;;;;3.20;1.70;;;10.40;99.90;;;;;;5025420;28;20277;-68
2022/10/10 05:32:48;;;;;;;1.87;1.27;;;10.40;99.90;;;;;;5032156;28;20193;-73
2022/10/10 05:35:14;;;;;;;2.80;1.67;;;10.40;99.90;;;;;;5042587;28;20185;-73
2022/10/10 05:37:40;;;;;;;3.93;1.80;;;10.40;99.90;;;;;;5030062;28;20198;-72
2022/10/10 05:40:06;;;;;;;2.90;1.70;;;10.50;99.90;;;;;;5027569;28;20222;-66
2022/10/10 05:42:32;;;;;;;2.37;1.50;;;10.40;99.90;;;;;;5027946;28;20178;-74
2022/10/10 05:44:57;;;;;;;2.30;1.60;;;10.40;99.90;;;;;;5030192;28;20210;-72
2022/10/10 05:47:24;;;;;;;2.07;1.73;;;10.40;99.90;;;;;;5029871;28;20270;-75
2022/10/10 05:49:52;;;;;;;2.07;1.67;;;10.40;99.90;;;;;;5033464;28;20197;-74
2022/10/10 05:52:22;;;;;;;2.43;1.70;;;10.40;99.90;;;;;;5032200;28;20202;-75
2022/10/10 05:54:50;;;;;;;2.17;1.70;;;10.40;99.90;;;;;;5038253;28;20189;-74
2022/10/10 05:57:16;;;;;;;2.80;1.53;;;10.40;99.90;;;;;;5031021;28;20183;-75
2022/10/10 05:59:41;;;;;;;3.23;1.70;;;10.40;99.90;;;;;;5036269;28;20205;-75
2022/10/10 06:02:13;;;;;;;3.30;1.90;;;10.50;99.90;;;;;;5031060;28;20217;-73
2022/10/10 06:04:41;;;;;;;3.87;2.13;;;10.40;99.90;;;;;;5030748;28;20170;-72
2022/10/10 06:07:08;;;;;;;3.00;2.00;;;10.40;99.90;;;;;;5032788;28;20174;-71
2022/10/10 06:09:34;;;;;;;2.17;1.93;;;10.50;99.90;;;;;;5027803;28;20185;-72
2022/10/10 06:11:59;;;;;;;2.20;1.77;;;10.50;99.90;;;;;;5032554;28;20191;-71
2022/10/10 06:14:25;;;;;;;3.07;2.00;;;10.40;99.90;;;;;;5029792;28;20182;-71
2022/10/10 06:16:53;;;;;;;2.17;1.70;;;10.50;99.90;;;;;;5028487;28;20254;-70
2022/10/10 06:19:18;;;;;;;2.80;2.07;;;10.40;99.90;;;;;;5027973;28;20196;-71
2022/10/10 06:21:50;;;;;;;2.63;2.07;;;10.40;99.90;;;;;;5029384;28;20281;-72
2022/10/10 06:24:18;;;;;;;2.13;1.63;;;10.40;99.90;;;;;;5030028;28;20202;-71
2022/10/10 06:26:43;;;;;;;3.90;1.80;;;10.40;99.90;;;;;;5031926;28;20186;-72
2022/10/10 06:29:09;;;;;;;2.70;1.63;;;10.40;99.90;;;;;;5032166;28;20212;-70
2022/10/10 06:31:39;;;;;;;4.10;1.87;;;10.50;99.90;;;;;;5031909;28;20272;-72
2022/10/10 06:34:05;;;;;;;2.50;1.70;;;10.50;99.90;;;;;;5026971;28;20245;-72
2022/10/10 06:36:31;;;;;;;2.53;1.90;;;10.50;99.90;;;;;;5026437;28;20278;-72
2022/10/10 06:38:57;;;;;;;3.27;1.70;;;10.50;99.90;;;;;;5031822;28;20182;-71
2022/10/10 06:41:25;;;;;;;4.00;1.93;;;10.60;99.90;;;;;;5047048;28;20362;-72
2022/10/10 06:43:51;;;;;;;3.50;2.20;;;10.60;99.90;;;;;;5033234;28;20178;-72
2022/10/10 06:46:17;;;;;;;3.57;1.90;;;10.70;99.90;;;;;;5030623;28;20197;-72
2022/10/10 06:48:47;;;;;;;3.67;1.83;;;10.70;99.90;;;;;;5028610;28;20229;-69
2022/10/10 06:51:15;;;;;;;3.13;1.93;;;10.80;99.90;;;;;;5027763;28;20185;-72
2022/10/10 06:53:42;;;;;;;2.20;1.90;;;10.80;99.90;;;;;;5022926;28;20178;-72
2022/10/10 06:56:19;;;;;;;3.33;1.73;;;10.90;99.90;;;;;;5027929;28;20217;-70
2022/10/10 06:58:46;;;;;;;2.10;1.90;;;10.90;99.90;;;;;;5035814;28;20192;-72
2022/10/10 07:01:16;;;;;;;3.57;2.10;;;11.00;99.90;;;;;;5030726;28;20223;-71
2022/10/10 07:03:41;;;;;;;1.73;1.50;;;11.10;99.90;;;;;;5027001;28;20281;-72
2022/10/10 07:06:09;;;;;;;2.10;1.63;;;11.10;99.90;;;;;;5016334;28;20268;-72
2022/10/10 07:08:36;;;;;;;3.57;1.63;;;11.20;99.90;;;;;;5021661;28;20178;-72
2022/10/10 07:11:02;;;;;;;2.30;1.65;;;11.20;99.90;;;;;;5035293;28;20201;-71
2022/10/10 07:13:28;;;;;;;2.17;1.52;;;11.30;99.90;;;;;;5035189;28;20185;-71
2022/10/10 07:15:54;;;;;;;2.63;1.80;;;11.40;99.90;;;;;;5034326;28;20268;-71
2022/10/10 07:18:22;;;;;;;2.45;1.58;;;11.50;99.90;;;;;;5034950;28;20212;-71
2022/10/10 07:20:55;;;;;;;2.00;1.55;;;11.50;99.90;;;;;;5030659;28;20190;-72
2022/10/10 07:23:23;;;;;;;3.67;1.88;;;11.60;99.90;;;;;;5027848;28;20173;-66
2022/10/10 07:25:51;;;;;;;2.97;1.83;;;11.70;99.90;;;;;;5018282;28;20237;-69
2022/10/10 07:28:19;;;;;;;4.68;2.15;;;11.70;99.90;;;;;;5027135;28;20223;-71
2022/10/10 07:30:45;;;;;;;3.42;1.88;;;11.80;99.90;;;;;;5027540;28;20183;-72
2022/10/10 07:33:14;;;;;;;2.08;1.55;;;11.90;99.90;;;;;;5028337;28;20225;-71
2022/10/10 07:35:41;;;;;;;2.28;1.80;;;12.00;99.90;;;;;;5027046;28;20178;-72
2022/10/10 07:38:09;;;;;;;3.78;1.60;;;12.10;99.90;;;;;;5031811;28;20224;-71
2022/10/10 07:40:34;;;;;;;2.47;1.92;;;12.10;99.90;;;;;;5023218;28;20288;-72
2022/10/10 07:43:00;;;;;;;2.45;1.90;;;12.20;99.90;;;;;;5023522;28;20197;-71
2022/10/10 07:45:28;;;;;;;2.20;1.80;;;12.40;99.90;;;;;;5029769;28;20188;-70
2022/10/10 07:47:53;;;;;;;2.03;1.67;;;12.40;99.90;;;;;;5024600;28;20265;-73
2022/10/10 07:50:24;;;;;;;3.05;1.65;;;12.50;99.90;;;;;;5028269;28;20265;-72
2022/10/10 07:52:49;;;;;;;2.28;1.80;;;12.60;99.90;;;;;;5031086;28;20177;-72
2022/10/10 07:55:15;;;;;;;6.78;2.20;;;12.70;99.90;;;;;;5022362;28;20209;-74
2022/10/10 07:57:43;;;;;;;3.28;1.85;;;12.80;99.90;;;;;;5031495;28;20174;-73
2022/10/10 08:00:09;;;;;;;3.75;2.13;;;12.90;99.90;;;;;;5029902;28;20236;-69
2022/10/10 08:02:35;;;;;;;2.97;1.80;;;13.00;99.90;;;;;;5028647;28;20293;-73
2022/10/10 08:05:01;;;;;;;3.72;2.08;;;13.20;99.90;;;;;;5028313;28;20284;-72
2022/10/10 08:07:27;;;;;;;2.47;1.85;;;13.30;99.90;;;;;;5026828;28;20190;-72
2022/10/10 08:09:52;;;;;;;2.20;1.75;;;13.40;99.90;;;;;;5027248;28;20216;-72
2022/10/10 08:12:18;;;;;;;2.20;1.80;;;13.50;99.90;;;;;;5034047;28;20173;-72
2022/10/10 08:14:44;;;;;;;3.15;1.85;;;13.60;99.90;;;;;;5034532;28;20174;-72
2022/10/10 08:17:12;;;;;;;2.97;1.73;;;13.80;99.90;;;;;;5034460;28;20186;-70
2022/10/10 08:19:37;;;;;;;2.75;1.70;;;13.90;99.90;;;;;;5034236;28;20207;-72
2022/10/10 08:22:03;;;;;;;3.58;1.80;;;14.10;99.90;;;;;;5016324;28;20255;-72
2022/10/10 08:24:29;;;;;;;4.22;2.17;;;14.20;99.90;;;;;;5015113;28;20171;-72
2022/10/10 08:26:57;;;;;;;3.58;1.75;;;14.30;99.90;;;;;;5025171;28;20192;-73
2022/10/10 08:29:23;;;;;;;5.22;2.05;;;14.40;99.90;;;;;;5034233;28;20201;-71
2022/10/10 08:31:53;;;;;;;6.30;1.95;;;14.50;99.90;;;;;;5034400;28;20185;-72
2022/10/10 08:34:19;;;;;;;4.57;1.85;;;14.70;99.90;;;;;;5014593;28;20182;-71
2022/10/10 08:36:44;;;;;;;4.40;2.08;;;14.80;99.90;;;;;;5014454;28;20281;-71
2022/10/10 08:39:10;;;;;;;3.80;2.13;;;14.90;99.90;;;;;;5014532;28;20170;-73
2022/10/10 08:41:45;;;;;;;3.63;1.83;;;14.90;99.90;;;;;;5051130;28;20228;-72
2022/10/10 08:44:29;;;;;;;3.83;2.13;;;15.00;99.90;;;;;;5043129;28;20217;-71
2022/10/10 08:47:02;;;;;;;3.80;2.08;;;15.10;99.90;;;;;;5038180;28;20300;-73
2022/10/10 08:49:36;;;;;;;3.67;2.10;;;15.20;99.90;;;;;;5038123;28;20230;-73
2022/10/10 08:52:12;;;;;;;4.65;2.33;;;15.30;99.90;;;;;;5038154;28;20174;-72
2022/10/10 08:54:41;;;;;;;2.53;1.73;;;15.30;99.90;;;;;;5039153;28;20158;-71
2022/10/10 08:57:34;;;;;;;3.00;1.83;;;15.40;99.90;;;;;;5038057;28;20202;-72
2022/10/10 09:00:06;;;;;;;1.98;1.75;;;15.50;99.90;;;;;;5037903;28;20322;-71
2022/10/10 09:02:58;;;;;;;4.10;2.10;;;15.60;99.90;;;;;;5037882;28;20204;-71
2022/10/10 09:05:40;;;;;;;4.25;1.95;;;15.60;99.90;;;;;;5038099;28;20159;-71
2022/10/10 09:08:16;;;;;;;2.72;2.08;;;15.70;99.90;;;;;;5038046;28;20282;-73
2022/10/10 09:10:55;;;;;;;2.67;1.88;;;15.80;99.90;;;;;;5035331;28;20194;-72
2022/10/10 09:13:24;;;;;;;3.58;1.92;;;15.90;99.90;;;;;;5044183;28;20273;-70
2022/10/10 09:16:02;;;;;;;4.43;2.00;;;16.10;99.90;;;;;;5032827;28;20179;-73
2022/10/10 09:19:04;;;;;;;5.20;2.00;;;16.50;99.90;;;;;;5031496;28;20178;-72
2022/10/10 09:21:35;;;;;;;2.50;1.80;;;17.10;99.90;;;;;;5032708;28;20221;-72
2022/10/10 09:24:32;;;;;;;2.83;1.70;;;17.80;99.90;;;;;;5031419;28;20198;-73
2022/10/10 09:27:08;;;;;;;4.10;2.22;;;18.40;99.90;;;;;;5001045;28;20546;-68
2022/10/10 09:29:46;;;;;;;2.70;1.80;;;19.30;99.90;;;;;;5031216;28;20200;-73
2022/10/10 09:32:31;;;;;;;3.47;1.80;;;19.90;99.90;;;;;;5028894;28;20194;-73
2022/10/10 09:35:17;;;;;;;4.45;1.77;;;20.40;99.90;;;;;;5029336;28;20178;-71
2022/10/10 09:37:47;;;;;;;2.63;1.60;;;20.90;99.90;;;;;;5033387;28;20205;-73
2022/10/10 09:41:10;;;;;;;3.63;1.65;;;21.30;99.90;;;;;;5029905;28;20220;-74
2022/10/10 09:43:39;;;;;;;2.97;1.63;;;21.60;99.90;;;;;;4996976;28;20230;-73
2022/10/10 09:46:12;;;;;;;3.35;2.00;;;21.80;99.90;;;;;;5002702;28;20174;-73
2022/10/10 09:48:41;;;;;;;3.05;2.10;;;21.90;99.90;;;;;;5018159;28;20183;-69
2022/10/10 09:51:20;;;;;;;3.60;1.77;;;21.90;99.90;;;;;;5023639;28;20217;-73
2022/10/10 09:53:47;;;;;;;1.90;1.50;;;21.90;99.90;;;;;;5023421;28;20763;-73
2022/10/10 09:56:29;;;;;;;2.80;1.73;;;22.00;99.90;;;;;;5033165;28;20239;-73
2022/10/10 09:58:56;;;;;;;3.33;1.88;;;22.20;99.90;;;;;;5036432;28;20196;-70
2022/10/10 10:01:31;;;;;;;2.72;1.50;;;22.30;99.90;;;;;;5027885;28;20198;-72
2022/10/10 10:04:16;;;;;;;2.97;1.60;;;22.50;99.90;;;;;;5027375;28;20190;-72
2022/10/10 10:06:51;;;;;;;2.70;1.40;;;22.60;99.90;;;;;;5029295;28;20169;-70
2022/10/10 10:09:19;;;;;;;3.25;1.73;;;22.70;99.90;;;;;;5030117;28;20174;-73
2022/10/10 10:11:55;;;;;;;3.35;1.90;;;22.80;99.90;;;;;;5034035;28;20197;-72
2022/10/10 10:14:35;;;;;;;2.55;1.48;;;22.90;99.90;;;;;;5030414;28;20173;-70
2022/10/10 10:17:06;;;;;;;4.05;1.60;;;23.00;99.90;;;;;;5031655;28;20246;-74
2022/10/10 10:19:43;;;;;;;3.13;1.50;;;23.10;99.90;;;;;;5036826;28;20174;-75
2022/10/10 10:22:21;;;;;;;2.28;1.33;;;23.20;99.90;;;;;;5032134;28;20205;-74
2022/10/10 10:24:47;;;;;;;3.60;1.50;;;23.20;99.90;;;;;;5030146;28;20265;-73
2022/10/10 10:27:21;;;;;;;5.07;1.33;;;23.30;99.90;;;;;;5028573;28;20270;-73
2022/10/10 10:29:50;;;;;;;2.00;1.38;;;23.40;99.90;;;;;;5030936;28;20177;-72
2022/10/10 10:32:50;;;;;;;1.65;1.25;;;23.40;99.90;;;;;;5030525;28;20302;-74
2022/10/10 10:35:19;;;;;;;2.03;1.40;;;23.40;99.90;;;;;;5030731;28;20197;-73
2022/10/10 10:38:19;;;;;;;3.92;1.55;;;23.50;99.90;;;;;;5031339;28;20198;-73
2022/10/10 10:41:00;;;;;;;4.88;1.48;;;23.60;99.90;;;;;;5027747;28;20200;-72
2022/10/10 10:43:57;;;;;;;2.67;1.50;;;23.40;99.90;;;;;;5027862;28;20232;-74
2022/10/10 10:46:39;;;;;;;2.00;1.25;;;23.30;99.90;;;;;;5030591;28;20193;-73
2022/10/10 10:49:19;;;;;;;2.13;1.23;;;23.30;99.90;;;;;;5027601;28;20230;-71
2022/10/10 10:51:54;;;;;;;2.08;1.48;;;23.30;99.90;;;;;;5041258;28;20193;-73
2022/10/10 10:54:26;;;;;;;2.90;1.20;;;23.30;99.90;;;;;;5031828;28;20272;-73
2022/10/10 10:57:09;;;;;;;4.85;1.60;;;23.30;99.90;;;;;;5032889;28;20187;-74
2022/10/10 10:59:47;;;;;;;2.13;1.55;;;23.20;99.90;;;;;;5028587;28;20198;-72
2022/10/10 11:02:31;;;;;;;2.17;1.42;;;23.00;99.90;;;;;;5045161;28;20201;-73
2022/10/10 11:05:15;;;;;;;2.15;1.30;;;22.80;99.90;;;;;;5032916;28;20196;-72
2022/10/10 11:08:12;;;;;;;2.80;1.50;;;22.60;99.90;;;;;;5026576;28;20261;-71
2022/10/10 11:10:55;;;;;;;2.00;1.42;;;22.50;99.90;;;;;;5035408;28;20260;-73
2022/10/10 11:13:50;;;;;;;5.55;1.65;;;22.30;99.90;;;;;;5025309;28;20237;-73
2022/10/10 11:16:25;;;;;;;2.05;1.42;;;22.20;99.90;;;;;;5007411;28;20197;-74
2022/10/10 11:19:24;;;;;;;6.43;1.40;;;22.00;99.90;;;;;;5026065;28;20442;-73
2022/10/10 11:22:10;;;;;;;2.35;1.42;;;22.00;99.90;;;;;;5044064;28;20194;-73
2022/10/10 11:24:53;;;;;;;2.92;1.52;;;21.80;99.90;;;;;;5029858;28;20182;-73
2022/10/10 11:27:25;;;;;;;2.38;1.33;;;21.70;99.90;;;;;;5031719;28;20185;-73
2022/10/10 11:30:05;;;;;;;2.50;1.58;;;21.60;99.90;;;;;;5018054;28;20182;-73
2022/10/10 11:33:00;;;;;;;2.80;1.70;;;21.50;99.90;;;;;;5026523;28;20253;-72
2022/10/10 11:35:33;;;;;;;3.83;1.50;;;21.40;99.90;;;;;;5030410;28;20317;-71
2022/10/10 11:38:09;;;;;;;3.28;1.75;;;21.40;99.90;;;;;;5030113;28;20170;-74
2022/10/10 11:40:44;;;;;;;4.25;1.50;;;21.50;99.90;;;;;;5029537;28;20343;-73
2022/10/10 11:43:27;;;;;;;2.42;1.55;;;21.50;99.90;;;;;;5034698;28;20181;-73
2022/10/10 11:45:59;;;;;;;1.98;1.60;;;21.70;99.90;;;;;;5029187;28;20202;-72
2022/10/10 11:48:31;;;;;;;1.90;1.63;;;21.80;99.90;;;;;;5027596;28;20170;-73
2022/10/10 11:51:05;;;;;;;3.33;1.63;;;22.00;99.90;;;;;;5035158;28;20186;-73
2022/10/10 11:53:43;;;;;;;3.25;1.70;;;22.20;99.90;;;;;;5028524;28;20225;-71
2022/10/10 11:56:42;;;;;;;3.65;1.95;;;22.40;99.90;;;;;;5030029;28;20182;-73
2022/10/10 11:59:20;;;;;;;4.15;1.52;;;22.60;99.90;;;;;;5033959;28;20283;-72
2022/10/10 12:01:56;;;;;;;4.03;1.73;;;22.80;99.90;;;;;;5015346;28;20317;-72
2022/10/10 12:04:22;;;;;;;2.78;1.65;;;22.90;99.90;;;;;;5027785;28;20174;-74
2022/10/10 12:07:03;;;;;;;3.22;1.55;;;23.00;99.90;;;;;;5031315;28;20257;-73
2022/10/10 12:09:39;;;;;;;6.20;1.85;;;23.00;99.90;;;;;;5042180;28;20240;-74
2022/10/10 12:12:18;;;;;;;2.95;1.77;;;23.00;99.90;;;;;;5025883;28;20201;-73
2022/10/10 12:14:52;;;;;;;2.13;1.58;;;22.90;99.90;;;;;;5027848;28;20202;-74
2022/10/10 12:17:31;;;;;;;4.32;1.80;;;22.90;99.90;;;;;;5029477;28;20182;-72
2022/10/10 12:20:14;;;;;;;2.30;1.70;;;22.80;99.90;;;;;;5028161;28;20205;-73
2022/10/10 12:22:40;;;;;;;2.35;1.77;;;22.80;99.90;;;;;;5029384;28;20178;-73
2022/10/10 12:25:05;;;;;;;2.83;2.00;;;22.70;99.90;;;;;;5029853;28;20189;-72
2022/10/10 12:27:43;;;;;;;6.18;2.00;;;22.70;99.90;;;;;;5028164;28;20178;-72
2022/10/10 12:30:15;;;;;;;2.42;1.77;;;22.70;99.90;;;;;;5028601;28;20177;-70
2022/10/10 12:32:49;;;;;;;2.35;1.70;;;22.70;99.90;;;;;;5041157;28;20325;-72
2022/10/10 12:35:39;;;;;;;3.40;1.60;;;22.70;99.90;;;;;;5030045;28;20193;-73
2022/10/10 12:38:12;;;;;;;2.70;1.40;;;22.70;99.90;;;;;;5041090;28;20188;-73
2022/10/10 12:40:56;;;;;;;2.95;1.70;;;22.70;99.90;;;;;;5030258;28;20216;-73
2022/10/10 12:43:39;;;;;;;4.07;1.80;;;22.70;99.90;;;;;;5021587;28;20201;-72
2022/10/10 12:46:08;;;;;;;3.28;1.60;;;22.60;99.90;;;;;;5025466;28;20171;-72
2022/10/10 12:48:36;;;;;;;3.97;1.60;;;22.60;99.90;;;;;;5029742;28;20170;-70
2022/10/10 12:51:02;;;;;;;4.47;1.75;;;22.60;99.90;;;;;;5024883;28;20203;-73
2022/10/10 12:53:32;;;;;;;6.63;1.60;;;22.50;99.90;;;;;;5014496;28;20202;-74
2022/10/10 12:56:03;;;;;;;3.35;1.50;;;22.40;99.90;;;;;;5024867;28;20217;-74
2022/10/10 12:58:33;;;;;;;3.33;1.90;;;22.40;99.90;;;;;;5022398;28;20194;-73
2022/10/10 13:01:04;;;;;;;2.55;1.58;;;22.30;99.90;;;;;;5030132;28;20230;-73
2022/10/10 13:03:45;;;;;;;3.63;1.63;;;22.30;99.90;;;;;;5029115;28;20178;-73
2022/10/10 13:06:25;;;;;;;3.13;1.83;;;22.20;99.90;;;;;;5028302;28;20229;-71
2022/10/10 13:08:53;;;;;;;3.15;1.50;;;22.20;99.90;;;;;;5030325;28;20185;-73
2022/10/10 13:11:19;;;;;;;2.53;1.55;;;22.10;99.90;;;;;;5028562;28;20184;-72
2022/10/10 13:13:53;;;;;;;1.85;1.20;;;22.10;99.90;;;;;;5029154;28;20265;-73